Portada
METAR-TAF:

METAR-TAF

Aeroports :

Aeroport de Varsòvia Chopin

Varsòvia, Polònia

latitud: 52-10N, longitud: 020-58E, altitud: 106 m

Observació

L'informe es va fer fa 39 minuts, a les 18:30 UTC
Vent 6 kt del Sud-Est
Temperatura 12°C
Humitat 67%
Pressió 1022 hPa
Visibilitat 10 km o més
sense núvols per sota de 1500 mi sense presència de cumulonimbus.

METAR: EPWA 151830Z 14006KT CAVOK 12/06 Q1022 NOSIG

Hora: 21:09 (19:09 UTC)

Pronòstic

L'informe es va fer fa 1 hora i 39 minuts, a les 17:30 UTC
Pronòstic vàlid del 15 a les 18 UTC al 16 a les 18 UTC
Vent 5 kt del Sud-Est
Visibilitat 10 km o més
sense núvols per sota de 1500 mi sense presència de cumulonimbus.

TAF: EPWA 151730Z 1518/1618 14005KT CAVOK

Observacions i pronòstics meteorològics de més de 4000 aeroports (METAR i TAF).

Les estacions disponibles són els punts grocs i vermells al mapa.

Posi el ratolí al punt desitjat per veure el nom de l'estació.

Feu clic per veure les observacions i els pronòstics meteorològics.

Per canviar el mapa: feu clic els botons verds amb una creu de color negre per apropar; al botó verd amb un guió per allunyar la imatge; o en les fletxes verdes per a mapes adjacents.


METAR-TAF: